createdAt,value
2023-03-30T00:01:26.388Z,65.28
2023-03-30T00:04:35.014Z,64.20
2023-03-30T00:07:42.563Z,63.92
2023-03-30T00:10:55.102Z,63.82
2023-03-30T00:14:05.039Z,67.33
2023-03-30T00:17:12.568Z,63.75
2023-03-30T00:20:20.253Z,63.45
2023-03-30T00:23:41.622Z,66.65
2023-03-30T00:26:51.304Z,67.43
2023-03-30T00:30:00.862Z,75.18
2023-03-30T00:33:08.042Z,78.60
2023-03-30T00:36:14.447Z,81.20
2023-03-30T00:39:23.414Z,87.64
2023-03-30T00:42:32.061Z,88.96
2023-03-30T00:45:41.311Z,82.15
2023-03-30T00:48:49.033Z,81.42
2023-03-30T00:51:56.264Z,84.25
2023-03-30T00:55:05.233Z,86.44
2023-03-30T00:58:17.904Z,105.41
2023-03-30T01:01:29.309Z,117.02
2023-03-30T01:04:37.953Z,135.08
2023-03-30T01:07:50.223Z,151.56
2023-03-30T01:10:57.400Z,151.64
2023-03-30T01:14:13.022Z,136.59
2023-03-30T01:17:37.367Z,129.21
2023-03-30T01:21:55.963Z,115.70
2023-03-30T01:25:51.205Z,98.02
2023-03-30T01:29:14.233Z,90.36
2023-03-30T01:33:08.006Z,80.30
2023-03-30T01:36:46.991Z,78.20
2023-03-30T01:40:06.238Z,74.55
2023-03-30T01:43:24.104Z,81.62
2023-03-30T01:46:46.614Z,75.73
2023-03-30T01:50:06.946Z,75.87
2023-03-30T01:53:27.340Z,76.89
2023-03-30T01:56:46.499Z,81.40
2023-03-30T02:00:07.807Z,88.86
2023-03-30T02:03:28.725Z,85.49
2023-03-30T02:06:45.090Z,77.82
2023-03-30T02:09:59.312Z,72.85
2023-03-30T02:13:18.744Z,68.01
2023-03-30T02:16:42.120Z,63.98
2023-03-30T02:19:51.601Z,64.46
2023-03-30T02:22:59.253Z,63.39
2023-03-30T02:26:08.299Z,62.74
2023-03-30T02:29:19.885Z,61.20
2023-03-30T02:32:33.812Z,56.23
2023-03-30T02:36:06.645Z,56.91
2023-03-30T02:39:35.753Z,55.55
2023-03-30T02:43:03.855Z,56.42
2023-03-30T02:46:36.881Z,56.35
2023-03-30T02:50:03.344Z,56.68
2023-03-30T02:53:26.263Z,56.28
2023-03-30T02:56:50.050Z,58.65
2023-03-30T03:00:08.971Z,55.24
2023-03-30T03:03:34.896Z,57.02
2023-03-30T03:06:43.266Z,55.13
2023-03-30T03:09:51.186Z,57.16
2023-03-30T03:12:57.714Z,57.23
2023-03-30T03:16:06.523Z,59.05
2023-03-30T03:19:16.269Z,61.75
2023-03-30T03:22:25.115Z,62.64
2023-03-30T03:25:31.608Z,61.84
2023-03-30T03:28:43.189Z,62.40
2023-03-30T03:31:49.495Z,63.94
2023-03-30T03:34:59.773Z,74.16
2023-03-30T03:38:22.101Z,77.78
2023-03-30T03:41:29.992Z,89.40
2023-03-30T03:44:38.005Z,85.42
2023-03-30T03:47:44.901Z,78.11
2023-03-30T03:51:06.102Z,69.25
2023-03-30T03:54:16.978Z,75.82
2023-03-30T03:57:31.196Z,107.20
2023-03-30T04:00:38.649Z,103.58
2023-03-30T04:03:45.102Z,92.31
2023-03-30T04:06:54.697Z,87.20
2023-03-30T04:10:00.698Z,82.10
2023-03-30T04:13:37.352Z,73.78
2023-03-30T04:17:05.091Z,70.47
2023-03-30T04:20:34.402Z,70.41
2023-03-30T04:24:12.422Z,70.41
2023-03-30T04:27:38.006Z,74.89
2023-03-30T04:31:11.351Z,74.73
2023-03-30T04:34:42.950Z,76.20
2023-03-30T04:38:12.658Z,73.02
2023-03-30T04:41:46.272Z,71.95
2023-03-30T04:45:15.110Z,70.84
2023-03-30T04:48:40.415Z,74.18
2023-03-30T04:51:59.486Z,74.83
2023-03-30T04:55:44.816Z,75.13
2023-03-30T04:59:25.867Z,67.99
2023-03-30T05:02:59.121Z,68.20
2023-03-30T05:06:26.052Z,67.96
2023-03-30T05:10:09.576Z,70.75
2023-03-30T05:13:41.045Z,69.96
2023-03-30T05:17:09.478Z,76.47
2023-03-30T05:20:35.013Z,74.01
2023-03-30T05:23:47.859Z,72.76
2023-03-30T05:27:14.015Z,68.59
2023-03-30T05:30:35.110Z,67.65
2023-03-30T05:34:12.138Z,67.01
2023-03-30T05:37:32.495Z,59.15
2023-03-30T05:41:01.480Z,64.99
2023-03-30T05:44:27.504Z,62.64
2023-03-30T05:48:05.134Z,62.36
2023-03-30T05:51:37.864Z,63.08
2023-03-30T05:54:56.185Z,59.93
2023-03-30T05:58:21.914Z,61.35
2023-03-30T06:01:46.178Z,58.65
2023-03-30T06:04:53.046Z,62.14
2023-03-30T06:08:05.107Z,65.20
2023-03-30T06:11:13.069Z,67.07
2023-03-30T06:14:32.048Z,67.80
2023-03-30T06:18:05.975Z,63.52
2023-03-30T06:21:21.038Z,63.28
2023-03-30T06:24:41.089Z,60.63
2023-03-30T06:27:47.699Z,58.53
2023-03-30T06:31:03.408Z,62.32
2023-03-30T06:34:10.400Z,61.30
2023-03-30T06:37:18.548Z,61.33
2023-03-30T06:40:27.808Z,62.05
2023-03-30T06:43:40.156Z,67.46
2023-03-30T06:46:52.217Z,61.29
2023-03-30T06:50:05.484Z,59.32
2023-03-30T06:53:31.916Z,72.60
2023-03-30T06:56:42.064Z,79.75
2023-03-30T06:59:55.144Z,69.82
2023-03-30T07:03:02.495Z,60.56
2023-03-30T07:06:20.087Z,57.94
2023-03-30T07:09:36.575Z,65.63
2023-03-30T07:12:45.260Z,63.86
2023-03-30T07:15:52.754Z,62.87
2023-03-30T07:18:59.131Z,59.93
2023-03-30T07:22:06.428Z,60.84
2023-03-30T07:25:13.790Z,56.21
2023-03-30T07:28:23.344Z,54.31
2023-03-30T07:31:30.389Z,52.09
2023-03-30T07:34:37.759Z,56.30
2023-03-30T07:37:44.857Z,69.19
2023-03-30T07:40:51.904Z,56.98
2023-03-30T07:44:03.622Z,63.74
2023-03-30T07:47:10.664Z,60.40
2023-03-30T07:50:17.956Z,58.49
2023-03-30T07:53:25.747Z,51.24
2023-03-30T07:56:33.733Z,49.11
2023-03-30T07:59:43.756Z,53.15
2023-03-30T08:03:13.253Z,46.05
2023-03-30T08:06:23.624Z,45.96
2023-03-30T08:09:36.626Z,43.08
2023-03-30T08:12:44.407Z,47.85
2023-03-30T08:15:54.646Z,40.70
2023-03-30T08:19:01.837Z,41.03
2023-03-30T08:22:08.122Z,42.84
2023-03-30T08:25:15.683Z,41.27
2023-03-30T08:28:27.606Z,49.48
2023-03-30T08:31:39.270Z,39.28
2023-03-30T08:34:46.602Z,38.05
2023-03-30T08:37:54.343Z,42.54
2023-03-30T08:41:00.490Z,40.11
2023-03-30T08:44:26.343Z,44.65
2023-03-30T08:47:42.444Z,41.43
2023-03-30T08:51:09.561Z,43.78
2023-03-30T08:54:29.992Z,44.17
2023-03-30T08:57:55.998Z,40.60
2023-03-30T09:01:26.556Z,42.23
2023-03-30T09:05:05.323Z,42.28
2023-03-30T09:08:23.292Z,43.10
2023-03-30T09:11:43.319Z,39.70
2023-03-30T09:14:57.065Z,38.31
2023-03-30T09:18:18.472Z,38.29
2023-03-30T09:21:35.046Z,38.93
2023-03-30T09:24:42.651Z,41.59
2023-03-30T09:28:05.655Z,37.93
2023-03-30T09:31:22.189Z,39.74
2023-03-30T09:34:42.290Z,38.98
2023-03-30T09:37:51.671Z,39.00
2023-03-30T09:41:21.480Z,39.56
2023-03-30T09:44:40.126Z,41.23
2023-03-30T09:47:47.064Z,41.29
2023-03-30T09:50:54.054Z,39.42
2023-03-30T09:54:10.889Z,38.63
2023-03-30T09:57:32.197Z,38.97
2023-03-30T10:00:39.633Z,43.35
2023-03-30T10:03:55.587Z,46.95
2023-03-30T10:07:09.821Z,40.65
2023-03-30T10:10:38.805Z,39.92
2023-03-30T10:13:46.918Z,38.93
2023-03-30T10:16:53.947Z,36.48
2023-03-30T10:20:25.584Z,36.63
2023-03-30T10:23:40.239Z,38.43
2023-03-30T10:26:56.460Z,35.01
2023-03-30T10:30:14.244Z,31.27
2023-03-30T10:33:20.766Z,31.81
2023-03-30T10:36:36.246Z,35.50
2023-03-30T10:39:46.262Z,27.76
2023-03-30T10:43:00.794Z,34.38
2023-03-30T10:46:19.453Z,36.55
2023-03-30T10:49:49.055Z,35.61
2023-03-30T10:53:12.487Z,38.47
2023-03-30T10:56:40.736Z,34.19
2023-03-30T11:00:28.628Z,37.14
2023-03-30T11:03:37.199Z,36.45
2023-03-30T11:06:46.676Z,35.82
2023-03-30T11:10:07.832Z,39.47
2023-03-30T11:13:24.547Z,36.95
2023-03-30T11:16:47.997Z,34.20
2023-03-30T11:20:08.046Z,38.93
2023-03-30T11:23:29.375Z,32.29
2023-03-30T11:26:44.798Z,30.39
2023-03-30T11:30:03.250Z,28.64
2023-03-30T11:33:30.366Z,28.50
2023-03-30T11:36:51.876Z,31.05
2023-03-30T11:40:11.597Z,27.57
2023-03-30T11:43:27.484Z,28.70
2023-03-30T11:46:49.166Z,31.67
2023-03-30T11:50:26.516Z,28.34
2023-03-30T11:53:51.623Z,28.78
2023-03-30T11:57:18.293Z,30.21
2023-03-30T12:00:57.404Z,33.46
2023-03-30T12:04:18.033Z,44.17
2023-03-30T12:07:43.172Z,31.87
2023-03-30T12:10:58.986Z,35.71
2023-03-30T12:14:08.943Z,62.05
2023-03-30T12:17:37.695Z,105.72
2023-03-30T12:21:23.945Z,90.15
2023-03-30T12:24:41.866Z,71.78
2023-03-30T12:28:15.191Z,45.30
2023-03-30T12:31:22.305Z,55.60
2023-03-30T12:34:38.290Z,75.07
2023-03-30T12:37:50.597Z,86.57
2023-03-30T12:41:14.871Z,87.35
2023-03-30T12:44:46.764Z,77.22
2023-03-30T12:48:21.118Z,69.75
2023-03-30T12:51:56.091Z,63.18
2023-03-30T12:55:42.875Z,81.39
2023-03-30T12:59:30.346Z,64.29
2023-03-30T13:03:07.748Z,80.69
2023-03-30T13:06:30.202Z,75.68
2023-03-30T13:10:04.857Z,71.21
2023-03-30T13:13:47.148Z,93.38
2023-03-30T13:17:18.045Z,110.98
2023-03-30T13:20:33.041Z,127.11
2023-03-30T13:23:42.371Z,114.25
2023-03-30T13:26:51.212Z,111.49
2023-03-30T13:30:09.573Z,79.75
2023-03-30T13:33:27.165Z,69.71
2023-03-30T13:36:43.473Z,71.59
2023-03-30T13:40:07.734Z,76.93
2023-03-30T13:43:33.875Z,71.47
2023-03-30T13:46:55.630Z,59.80
2023-03-30T13:50:08.393Z,80.34
2023-03-30T13:53:19.523Z,75.54
2023-03-30T13:56:30.082Z,87.94
2023-03-30T13:59:41.218Z,90.73
2023-03-30T14:02:50.736Z,104.27
2023-03-30T14:05:57.477Z,149.38
2023-03-30T14:09:16.322Z,146.36
2023-03-30T14:12:23.584Z,139.17
2023-03-30T14:15:40.415Z,140.09
2023-03-30T14:18:49.855Z,141.02
2023-03-30T14:22:05.387Z,113.28
2023-03-30T14:25:36.559Z,123.30
2023-03-30T14:28:44.513Z,118.38
2023-03-30T14:32:07.289Z,116.61
2023-03-30T14:35:22.193Z,130.55
2023-03-30T14:38:35.058Z,163.11
2023-03-30T14:41:42.496Z,189.64
2023-03-30T14:44:56.338Z,188.52
2023-03-30T14:48:03.631Z,170.65
2023-03-30T14:51:28.446Z,168.77
2023-03-30T14:54:36.517Z,119.44
2023-03-30T14:57:47.107Z,92.38
2023-03-30T15:01:00.881Z,99.00
2023-03-30T15:04:20.525Z,108.79
2023-03-30T15:07:35.005Z,94.34
2023-03-30T15:10:55.143Z,88.79
2023-03-30T15:14:10.633Z,84.64
2023-03-30T15:17:26.831Z,81.35
2023-03-30T15:20:35.820Z,83.19
2023-03-30T15:23:51.488Z,99.09
2023-03-30T15:27:12.115Z,97.37
2023-03-30T15:30:46.865Z,101.32
2023-03-30T15:33:57.735Z,112.50
2023-03-30T15:37:08.573Z,119.13
2023-03-30T15:40:42.644Z,126.73
2023-03-30T15:44:08.150Z,111.63
2023-03-30T15:47:22.745Z,115.28
2023-03-30T15:50:30.229Z,130.89
2023-03-30T15:53:49.905Z,138.37
2023-03-30T15:57:13.394Z,168.29
2023-03-30T16:00:25.966Z,124.49
2023-03-30T16:03:42.423Z,125.44
2023-03-30T16:06:55.671Z,112.96
2023-03-30T16:10:02.000Z,127.65
2023-03-30T16:13:15.520Z,103.32
2023-03-30T16:16:27.923Z,100.92
2023-03-30T16:19:34.871Z,110.37
2023-03-30T16:22:50.065Z,105.78
2023-03-30T16:26:18.565Z,113.94
2023-03-30T16:29:34.434Z,119.15
2023-03-30T16:32:53.206Z,121.94
2023-03-30T16:36:09.382Z,125.68
2023-03-30T16:39:31.448Z,135.73
2023-03-30T16:42:38.736Z,144.68
2023-03-30T16:45:48.692Z,144.34
2023-03-30T16:48:54.916Z,154.07
2023-03-30T16:52:02.448Z,159.77
2023-03-30T16:55:13.316Z,163.27
2023-03-30T16:58:20.275Z,169.72
2023-03-30T17:01:31.961Z,225.04
2023-03-30T17:04:38.881Z,288.07
2023-03-30T17:07:46.206Z,247.41
2023-03-30T17:10:56.703Z,211.76
2023-03-30T17:14:02.730Z,182.35
2023-03-30T17:17:31.418Z,188.52
2023-03-30T17:21:03.532Z,193.07
2023-03-30T17:24:16.623Z,217.62
2023-03-30T17:27:27.257Z,228.31
2023-03-30T17:30:40.733Z,199.85
2023-03-30T17:34:03.889Z,186.94
2023-03-30T17:37:12.521Z,216.52
2023-03-30T17:40:31.543Z,224.65
2023-03-30T17:43:38.453Z,226.20
2023-03-30T17:46:45.000Z,177.64
2023-03-30T17:49:54.920Z,142.25
2023-03-30T17:53:05.161Z,167.73
2023-03-30T17:56:25.651Z,161.93
2023-03-30T17:59:31.818Z,136.80
2023-03-30T18:02:38.802Z,129.48
2023-03-30T18:05:49.076Z,129.87
2023-03-30T18:08:56.113Z,123.41
2023-03-30T18:12:02.284Z,121.51
2023-03-30T18:15:10.848Z,126.74
2023-03-30T18:18:25.455Z,130.08
2023-03-30T18:21:42.192Z,128.70
2023-03-30T18:24:55.746Z,126.70
2023-03-30T18:28:03.445Z,148.28
2023-03-30T18:31:09.762Z,156.69
2023-03-30T18:34:24.904Z,160.39
2023-03-30T18:37:33.601Z,151.52
2023-03-30T18:40:45.465Z,159.89
2023-03-30T18:43:51.564Z,161.25
2023-03-30T18:46:58.746Z,151.52
2023-03-30T18:50:18.342Z,169.45
2023-03-30T18:53:30.844Z,179.18
2023-03-30T18:56:38.175Z,189.11
2023-03-30T18:59:57.207Z,180.71
2023-03-30T19:03:06.617Z,187.06
2023-03-30T19:06:20.448Z,195.34
2023-03-30T19:09:42.116Z,193.44
2023-03-30T19:12:53.813Z,178.89
2023-03-30T19:16:05.259Z,166.72
2023-03-30T19:19:15.526Z,165.16
2023-03-30T19:22:21.925Z,168.72
2023-03-30T19:25:34.478Z,185.61
2023-03-30T19:28:54.229Z,202.17
2023-03-30T19:32:02.509Z,213.98
2023-03-30T19:35:10.827Z,236.19
2023-03-30T19:38:25.247Z,245.05
2023-03-30T19:41:44.739Z,231.13
2023-03-30T19:44:51.553Z,239.15
2023-03-30T19:47:57.826Z,234.68
2023-03-30T19:51:05.107Z,221.39
2023-03-30T19:54:11.560Z,174.94
2023-03-30T19:57:28.415Z,166.21
2023-03-30T20:00:35.273Z,154.22
2023-03-30T20:03:42.173Z,168.24
2023-03-30T20:06:48.659Z,185.29
2023-03-30T20:09:55.557Z,182.33
2023-03-30T20:13:04.197Z,178.94
2023-03-30T20:16:12.529Z,162.29
2023-03-30T20:19:29.365Z,164.30
2023-03-30T20:22:42.646Z,171.69
2023-03-30T20:25:50.885Z,176.32
2023-03-30T20:29:01.293Z,182.07
2023-03-30T20:32:08.029Z,187.94
2023-03-30T20:35:16.641Z,181.15
2023-03-30T20:38:23.456Z,176.35
2023-03-30T20:41:38.257Z,178.58
2023-03-30T20:44:50.552Z,190.37
2023-03-30T20:47:57.777Z,197.45
2023-03-30T20:51:05.475Z,211.63
2023-03-30T20:54:12.581Z,186.67
2023-03-30T20:57:18.873Z,178.63
2023-03-30T21:00:28.950Z,172.02
2023-03-30T21:03:35.701Z,176.96
2023-03-30T21:06:43.124Z,171.28
2023-03-30T21:09:49.498Z,174.23
2023-03-30T21:12:56.508Z,203.93
2023-03-30T21:16:12.991Z,209.64
2023-03-30T21:19:19.945Z,221.00
2023-03-30T21:22:26.522Z,211.29
2023-03-30T21:25:33.928Z,215.27
2023-03-30T21:28:42.099Z,223.79
2023-03-30T21:31:54.632Z,203.88
2023-03-30T21:35:00.800Z,199.86
2023-03-30T21:38:16.661Z,202.17
2023-03-30T21:41:24.532Z,210.71
2023-03-30T21:44:45.236Z,218.53
2023-03-30T21:47:54.463Z,220.65
2023-03-30T21:51:05.082Z,198.70
2023-03-30T21:54:12.235Z,200.68
2023-03-30T21:57:19.289Z,215.91
2023-03-30T22:00:28.123Z,226.43
2023-03-30T22:03:40.978Z,223.21
2023-03-30T22:06:48.061Z,211.38
2023-03-30T22:09:54.863Z,226.47
2023-03-30T22:13:00.931Z,209.95
2023-03-30T22:16:16.691Z,189.54
2023-03-30T22:19:26.542Z,188.44
2023-03-30T22:22:34.886Z,174.54
2023-03-30T22:25:41.411Z,166.86
2023-03-30T22:28:48.323Z,163.66
2023-03-30T22:31:56.307Z,165.66
2023-03-30T22:35:06.433Z,166.04
2023-03-30T22:38:14.443Z,163.47
2023-03-30T22:41:25.090Z,166.54
2023-03-30T22:44:31.010Z,168.37
2023-03-30T22:47:37.940Z,177.40
2023-03-30T22:50:47.182Z,174.65
2023-03-30T22:53:54.027Z,180.86
2023-03-30T22:57:01.052Z,184.07
2023-03-30T23:00:26.764Z,191.07
2023-03-30T23:03:33.097Z,189.88
2023-03-30T23:06:43.817Z,191.45
2023-03-30T23:09:51.016Z,184.37
2023-03-30T23:12:58.221Z,188.45
2023-03-30T23:16:08.815Z,189.10
2023-03-30T23:19:16.421Z,190.92
2023-03-30T23:22:32.940Z,195.31
2023-03-30T23:25:42.301Z,187.24
2023-03-30T23:28:48.452Z,189.71
2023-03-30T23:32:05.869Z,193.34
2023-03-30T23:35:13.009Z,196.47
2023-03-30T23:38:24.068Z,199.59
2023-03-30T23:41:30.140Z,201.74
2023-03-30T23:44:37.262Z,207.98
2023-03-30T23:47:44.205Z,203.85
2023-03-30T23:50:51.574Z,200.56
2023-03-30T23:54:06.441Z,189.01
2023-03-30T23:57:13.943Z,194.30
